Airport View

Enter AWOS ICAO identifier for current METAR.

ex. KFNL

KMNH 131613Z AUTO 02003KT 10SM OVC110 01/M14 A3021 RMK AO2

13 Dec 2017 16:32

Frequency: 134.375

Phone: 303-648-3479

Other Area AWOS: KFLY - KAFF - KAPA - KCOS

TAF KAPA 131141Z 1312/1412 07006KT P6SM SCT120 BKN220 FM131300 10007KT P6SM BKN110 BKN200 FM131500 16006KT P6SM SCT120 SCT220 FM131700 03010KT P6SM SCT080 SCT150 SCT200 FM140000 08010KT P6SM SCT080 BKN110 FM140500 09011KT P6SM VCSH SCT030 BKN050 TEMPO 1405/1407 5SM -SN BR BKN030 FM140700 05008KT 2SM -SN BR BKN012 OVC020